createdAt,value
2022-09-09T00:01:11.311Z,3.08
2022-09-09T00:03:42.818Z,3.62
2022-09-09T00:06:14.351Z,2.77
2022-09-09T00:08:47.011Z,2.45
2022-09-09T00:11:36.066Z,3.30
2022-09-09T00:14:07.392Z,4.87
2022-09-09T00:16:38.688Z,2.65
2022-09-09T00:19:10.230Z,6.17
2022-09-09T00:21:42.148Z,5.53
2022-09-09T00:24:13.506Z,3.12
2022-09-09T00:26:43.317Z,8.03
2022-09-09T00:29:14.784Z,4.55
2022-09-09T00:31:45.870Z,6.25
2022-09-09T00:34:18.351Z,15.60
2022-09-09T00:36:48.662Z,9.30
2022-09-09T00:39:20.165Z,10.88
2022-09-09T00:41:51.612Z,13.38
2022-09-09T00:44:21.471Z,23.75
2022-09-09T00:46:53.003Z,18.23
2022-09-09T00:49:24.529Z,11.83
2022-09-09T00:51:54.406Z,8.20
2022-09-09T00:54:26.655Z,5.83
2022-09-09T00:56:58.376Z,4.40
2022-09-09T00:59:29.992Z,3.87
2022-09-09T01:02:00.623Z,4.05
2022-09-09T01:04:33.087Z,3.33
2022-09-09T01:07:04.798Z,5.28
2022-09-09T01:09:36.668Z,3.52
2022-09-09T01:12:06.580Z,3.42
2022-09-09T01:14:39.498Z,3.83
2022-09-09T01:17:11.616Z,3.20
2022-09-09T01:19:43.474Z,4.15
2022-09-09T01:22:13.865Z,3.98
2022-09-09T01:24:45.282Z,4.28
2022-09-09T01:27:16.532Z,4.33
2022-09-09T01:29:46.600Z,5.12
2022-09-09T01:32:17.868Z,5.08
2022-09-09T01:34:48.296Z,4.00
2022-09-09T01:37:18.485Z,4.70
2022-09-09T01:39:48.753Z,4.95
2022-09-09T01:42:19.594Z,4.15
2022-09-09T01:44:49.708Z,4.22
2022-09-09T01:47:20.226Z,5.05
2022-09-09T01:49:50.560Z,4.33
2022-09-09T01:52:20.725Z,4.12
2022-09-09T01:54:50.890Z,3.92
2022-09-09T01:57:24.775Z,3.92
2022-09-09T02:00:00.930Z,4.45
2022-09-09T02:02:33.423Z,3.65
2022-09-09T02:05:04.832Z,2.92
2022-09-09T02:07:36.259Z,2.83
2022-09-09T02:10:07.828Z,3.17
2022-09-09T02:12:39.199Z,3.12
2022-09-09T02:15:10.584Z,3.17
2022-09-09T02:17:42.055Z,3.55
2022-09-09T02:20:13.397Z,3.47
2022-09-09T02:22:44.831Z,3.27
2022-09-09T02:25:16.312Z,3.00
2022-09-09T02:27:47.944Z,3.00
2022-09-09T02:30:18.295Z,3.22
2022-09-09T02:32:49.411Z,2.98
2022-09-09T02:35:22.967Z,2.70
2022-09-09T02:37:56.178Z,2.92
2022-09-09T02:40:26.537Z,3.40
2022-09-09T02:42:57.352Z,3.27
2022-09-09T02:45:29.630Z,3.42
2022-09-09T02:48:01.041Z,3.30
2022-09-09T02:50:32.344Z,3.90
2022-09-09T02:53:03.735Z,3.40
2022-09-09T02:55:35.030Z,3.95
2022-09-09T02:58:07.801Z,3.47
2022-09-09T03:00:39.426Z,3.75
2022-09-09T03:03:12.148Z,3.60
2022-09-09T03:05:44.107Z,4.10
2022-09-09T03:08:15.196Z,3.37
2022-09-09T03:10:50.044Z,3.20
2022-09-09T03:13:21.543Z,3.10
2022-09-09T03:15:51.879Z,2.70
2022-09-09T03:18:22.142Z,3.27
2022-09-09T03:20:53.243Z,2.87
2022-09-09T03:23:24.018Z,3.10
2022-09-09T03:25:54.313Z,3.35
2022-09-09T03:28:25.359Z,2.80
2022-09-09T03:30:57.102Z,2.87
2022-09-09T03:33:27.232Z,2.52
2022-09-09T03:35:58.614Z,2.42
2022-09-09T03:38:31.235Z,2.47
2022-09-09T03:41:01.560Z,2.72
2022-09-09T03:43:32.194Z,2.80
2022-09-09T03:46:02.324Z,2.75
2022-09-09T03:48:35.334Z,2.90
2022-09-09T03:51:05.623Z,3.50
2022-09-09T03:53:36.510Z,3.00
2022-09-09T03:56:08.629Z,3.72
2022-09-09T03:58:39.722Z,2.98
2022-09-09T04:01:15.376Z,2.45
2022-09-09T04:03:45.587Z,2.12
2022-09-09T04:06:20.175Z,1.60
2022-09-09T04:08:53.770Z,1.20
2022-09-09T04:11:23.491Z,1.05
2022-09-09T04:13:53.703Z,1.17
2022-09-09T04:16:23.878Z,0.80
2022-09-09T04:18:55.373Z,0.90
2022-09-09T04:21:27.643Z,0.88
2022-09-09T04:23:59.198Z,1.10
2022-09-09T04:26:29.503Z,1.45
2022-09-09T04:29:02.625Z,1.20
2022-09-09T04:31:33.571Z,1.27
2022-09-09T04:34:07.469Z,1.40
2022-09-09T04:36:38.368Z,1.40
2022-09-09T04:39:08.415Z,1.47
2022-09-09T04:41:44.822Z,1.40
2022-09-09T04:44:17.955Z,1.70
2022-09-09T04:46:48.053Z,1.67
2022-09-09T04:49:20.570Z,1.32
2022-09-09T04:51:55.414Z,1.20
2022-09-09T04:54:26.255Z,1.47
2022-09-09T04:56:57.075Z,1.45
2022-09-09T04:59:32.291Z,1.40
2022-09-09T05:02:03.095Z,1.32
2022-09-09T05:04:33.135Z,1.60
2022-09-09T05:07:06.018Z,2.08
2022-09-09T05:09:36.843Z,1.62
2022-09-09T05:12:08.486Z,1.90
2022-09-09T05:14:39.892Z,1.90
2022-09-09T05:17:10.130Z,1.70
2022-09-09T05:19:43.702Z,1.92
2022-09-09T05:22:15.406Z,1.92
2022-09-09T05:24:48.674Z,2.10
2022-09-09T05:27:21.027Z,1.90
2022-09-09T05:29:50.341Z,1.98
2022-09-09T05:32:20.567Z,2.00
2022-09-09T05:34:53.653Z,1.80
2022-09-09T05:37:27.738Z,1.80
2022-09-09T05:40:00.850Z,1.82
2022-09-09T05:42:32.856Z,1.77
2022-09-09T05:45:03.055Z,2.33
2022-09-09T05:47:33.364Z,2.62
2022-09-09T05:50:06.454Z,2.20
2022-09-09T05:52:36.531Z,1.60
2022-09-09T05:55:08.744Z,2.20
2022-09-09T05:57:38.926Z,1.72
2022-09-09T06:00:12.156Z,2.08
2022-09-09T06:02:46.585Z,1.98
2022-09-09T06:05:17.523Z,1.85
2022-09-09T06:07:47.825Z,2.05
2022-09-09T06:10:20.393Z,2.30
2022-09-09T06:12:52.264Z,1.35
2022-09-09T06:15:22.178Z,1.87
2022-09-09T06:17:53.626Z,1.80
2022-09-09T06:20:28.759Z,2.00
2022-09-09T06:23:02.619Z,1.50
2022-09-09T06:25:39.087Z,2.10
2022-09-09T06:28:10.512Z,1.65
2022-09-09T06:30:40.628Z,1.05
2022-09-09T06:33:15.822Z,1.82
2022-09-09T06:35:43.223Z,1.10
2022-09-09T06:38:14.293Z,0.85
2022-09-09T06:40:45.376Z,1.37
2022-09-09T06:43:16.450Z,1.90
2022-09-09T06:45:47.182Z,1.10
2022-09-09T06:48:17.415Z,0.82
2022-09-09T06:50:47.861Z,0.90
2022-09-09T06:53:20.539Z,1.20
2022-09-09T06:55:50.764Z,1.12
2022-09-09T06:58:20.941Z,0.80
2022-09-09T07:00:57.477Z,1.40
2022-09-09T07:03:37.491Z,0.95
2022-09-09T07:06:08.296Z,0.95
2022-09-09T07:08:38.357Z,1.20
2022-09-09T07:11:12.201Z,1.10
2022-09-09T07:13:41.155Z,0.70
2022-09-09T07:16:12.914Z,0.93
2022-09-09T07:18:44.034Z,0.98
2022-09-09T07:21:15.170Z,0.85
2022-09-09T07:23:45.334Z,1.00
2022-09-09T07:26:17.207Z,1.00
2022-09-09T07:28:47.616Z,1.00
2022-09-09T07:31:19.590Z,1.07
2022-09-09T07:33:50.899Z,1.00
2022-09-09T07:36:23.671Z,1.02
2022-09-09T07:38:54.869Z,1.10
2022-09-09T07:41:26.752Z,1.50
2022-09-09T07:43:57.011Z,1.20
2022-09-09T07:46:29.016Z,1.07
2022-09-09T07:49:00.790Z,1.00
2022-09-09T07:51:32.772Z,1.20
2022-09-09T07:54:05.681Z,1.10
2022-09-09T07:56:36.204Z,0.90
2022-09-09T07:59:08.660Z,0.80
2022-09-09T08:01:41.282Z,0.90
2022-09-09T08:04:14.163Z,0.98
2022-09-09T08:06:45.570Z,0.65
2022-09-09T08:09:15.997Z,0.53
2022-09-09T08:11:46.993Z,0.62
2022-09-09T08:14:17.227Z,0.50
2022-09-09T08:16:48.621Z,0.60
2022-09-09T08:19:20.419Z,0.53
2022-09-09T08:21:51.650Z,0.60
2022-09-09T08:24:22.187Z,0.80
2022-09-09T08:26:52.322Z,0.62
2022-09-09T08:29:22.630Z,0.95
2022-09-09T08:31:55.683Z,0.80
2022-09-09T08:34:27.940Z,0.98
2022-09-09T08:36:58.394Z,0.85
2022-09-09T08:39:28.634Z,1.10
2022-09-09T08:42:01.407Z,1.00
2022-09-09T08:44:33.138Z,0.62
2022-09-09T08:47:04.637Z,0.88
2022-09-09T08:49:35.957Z,0.80
2022-09-09T08:52:08.032Z,0.90
2022-09-09T08:54:51.624Z,0.70
2022-09-09T08:57:12.880Z,1.30
2022-09-09T08:59:43.221Z,1.07
2022-09-09T09:02:16.785Z,0.90
2022-09-09T09:04:46.857Z,1.30
2022-09-09T09:07:18.314Z,1.15
2022-09-09T09:09:49.695Z,1.37
2022-09-09T09:12:21.051Z,1.25
2022-09-09T09:14:51.835Z,1.10
2022-09-09T09:17:23.470Z,1.45
2022-09-09T09:19:53.661Z,1.47
2022-09-09T09:22:26.681Z,1.50
2022-09-09T09:24:58.551Z,1.32
2022-09-09T09:27:30.766Z,1.50
2022-09-09T09:30:22.936Z,1.60
2022-09-09T09:32:34.800Z,1.20
2022-09-09T09:35:06.799Z,1.20
2022-09-09T09:37:37.656Z,1.35
2022-09-09T09:40:12.050Z,1.30
2022-09-09T09:42:43.729Z,1.60
2022-09-09T09:45:15.014Z,1.42
2022-09-09T09:47:46.605Z,1.40
2022-09-09T09:50:18.204Z,1.50
2022-09-09T09:52:49.704Z,1.37
2022-09-09T09:55:20.199Z,1.80
2022-09-09T09:57:50.548Z,1.55
2022-09-09T10:00:23.051Z,1.40
2022-09-09T10:02:54.796Z,1.40
2022-09-09T10:05:28.003Z,1.30
2022-09-09T10:07:59.973Z,1.40
2022-09-09T10:10:31.443Z,1.90
2022-09-09T10:13:05.921Z,1.70
2022-09-09T10:15:37.243Z,1.50
2022-09-09T10:18:07.191Z,1.52
2022-09-09T10:20:38.664Z,1.62
2022-09-09T10:23:10.148Z,3.40
2022-09-09T10:25:42.999Z,1.80
2022-09-09T10:28:12.715Z,1.30
2022-09-09T10:30:45.181Z,1.37
2022-09-09T10:33:15.813Z,1.65
2022-09-09T10:35:48.001Z,1.98
2022-09-09T10:38:17.995Z,1.72
2022-09-09T10:40:53.126Z,1.90
2022-09-09T10:43:24.511Z,2.08
2022-09-09T10:45:58.711Z,2.00
2022-09-09T10:48:31.244Z,1.77
2022-09-09T10:51:05.413Z,2.00
2022-09-09T10:53:41.581Z,2.10
2022-09-09T10:56:13.143Z,2.12
2022-09-09T10:58:43.630Z,2.10
2022-09-09T11:01:16.383Z,1.70
2022-09-09T11:03:47.047Z,2.08
2022-09-09T11:12:10.803Z,1.87
2022-09-09T11:14:42.562Z,1.90
2022-09-09T11:17:14.472Z,1.85
2022-09-09T11:19:46.358Z,1.95
2022-09-09T11:22:20.371Z,2.45
2022-09-09T11:24:50.720Z,2.10
2022-09-09T11:27:22.293Z,2.55
2022-09-09T11:29:56.650Z,2.30
2022-09-09T11:32:28.323Z,2.42
2022-09-09T11:35:01.558Z,2.40
2022-09-09T11:37:32.580Z,2.98
2022-09-09T11:40:05.295Z,2.30
2022-09-09T11:42:39.514Z,2.33
2022-09-09T11:45:10.852Z,2.50
2022-09-09T11:47:41.618Z,2.70
2022-09-09T11:50:11.597Z,2.40
2022-09-09T11:52:45.536Z,3.27
2022-09-09T11:55:16.962Z,3.90
2022-09-09T11:57:49.676Z,3.72
2022-09-09T12:00:21.341Z,2.83
2022-09-09T12:02:52.637Z,2.02
2022-09-09T12:05:24.313Z,2.67
2022-09-09T12:07:57.248Z,2.47
2022-09-09T12:10:27.271Z,2.67
2022-09-09T12:13:00.536Z,2.52
2022-09-09T12:15:34.230Z,3.58
2022-09-09T12:18:05.732Z,3.58
2022-09-09T12:20:40.622Z,3.62
2022-09-09T12:23:10.866Z,3.27
2022-09-09T12:25:42.198Z,4.03
2022-09-09T12:28:13.540Z,16.42
2022-09-09T12:30:46.745Z,5.17
2022-09-09T12:33:18.140Z,4.20
2022-09-09T12:35:50.924Z,3.12
2022-09-09T12:38:22.232Z,3.12
2022-09-09T12:40:53.867Z,2.70
2022-09-09T12:43:25.215Z,3.12
2022-09-09T12:45:59.721Z,3.90
2022-09-09T12:48:30.794Z,3.40
2022-09-09T12:51:03.555Z,2.65
2022-09-09T12:53:37.630Z,3.22
2022-09-09T12:56:10.368Z,2.95
2022-09-09T12:58:42.647Z,3.70
2022-09-09T13:01:36.035Z,3.98
2022-09-09T13:04:27.512Z,3.70
2022-09-09T13:06:50.703Z,3.85
2022-09-09T13:09:29.619Z,3.20
2022-09-09T13:12:07.965Z,3.25
2022-09-09T13:14:49.429Z,3.10
2022-09-09T13:17:29.806Z,3.87
2022-09-09T13:20:03.672Z,3.40
2022-09-09T13:22:44.101Z,3.60
2022-09-09T13:25:15.657Z,4.00
2022-09-09T13:27:49.667Z,3.52
2022-09-09T13:30:27.138Z,4.50
2022-09-09T13:33:01.094Z,4.45
2022-09-09T13:35:32.860Z,5.08
2022-09-09T13:38:06.417Z,4.97
2022-09-09T13:40:36.930Z,5.85
2022-09-09T13:43:07.677Z,5.58
2022-09-09T13:45:38.770Z,5.60
2022-09-09T13:48:12.613Z,6.17
2022-09-09T13:50:43.717Z,5.28
2022-09-09T13:53:15.159Z,5.58
2022-09-09T13:55:53.167Z,5.33
2022-09-09T13:58:22.373Z,4.80
2022-09-09T14:00:57.909Z,5.05
2022-09-09T14:03:27.522Z,4.83
2022-09-09T14:05:58.860Z,5.80
2022-09-09T14:08:34.073Z,6.00
2022-09-09T14:11:04.784Z,5.70
2022-09-09T14:13:43.157Z,5.12
2022-09-09T14:16:17.554Z,4.67
2022-09-09T14:18:48.103Z,4.60
2022-09-09T14:21:20.043Z,4.60
2022-09-09T14:23:54.065Z,4.15
2022-09-09T14:26:25.702Z,4.08
2022-09-09T14:28:56.278Z,4.30
2022-09-09T14:31:29.762Z,4.03
2022-09-09T14:34:18.590Z,4.35
2022-09-09T14:36:46.426Z,4.15
2022-09-09T14:39:19.115Z,4.42
2022-09-09T14:41:49.304Z,3.62
2022-09-09T14:44:19.510Z,3.98
2022-09-09T14:46:52.804Z,3.58
2022-09-09T14:49:23.226Z,3.90
2022-09-09T14:51:55.831Z,3.98
2022-09-09T14:54:26.127Z,3.85
2022-09-09T14:56:56.221Z,4.40
2022-09-09T14:59:26.476Z,3.62
2022-09-09T15:01:56.877Z,3.55
2022-09-09T15:04:29.891Z,3.62
2022-09-09T15:07:03.594Z,3.50
2022-09-09T15:09:35.141Z,3.72
2022-09-09T15:12:06.939Z,3.62
2022-09-09T15:14:40.289Z,3.45
2022-09-09T15:17:10.522Z,3.30
2022-09-09T15:19:43.612Z,3.00
2022-09-09T15:22:14.014Z,3.37
2022-09-09T15:24:44.099Z,3.90
2022-09-09T15:27:17.849Z,3.35
2022-09-09T15:29:49.581Z,3.42
2022-09-09T15:32:19.851Z,3.42
2022-09-09T15:34:50.857Z,3.22
2022-09-09T15:37:20.856Z,3.40
2022-09-09T15:39:53.721Z,3.05
2022-09-09T15:42:25.336Z,3.27
2022-09-09T15:44:55.514Z,2.80
2022-09-09T15:47:26.838Z,2.92
2022-09-09T15:49:59.693Z,2.75
2022-09-09T15:52:30.939Z,2.60
2022-09-09T15:55:02.427Z,2.35
2022-09-09T15:57:32.492Z,2.55
2022-09-09T16:00:03.940Z,3.47
2022-09-09T16:02:35.197Z,3.70
2022-09-09T16:05:07.335Z,2.95
2022-09-09T16:07:37.251Z,3.42
2022-09-09T16:10:10.493Z,3.30
2022-09-09T16:12:42.247Z,3.35
2022-09-09T16:15:12.462Z,3.20
2022-09-09T16:17:45.758Z,3.77
2022-09-09T16:20:17.113Z,3.37
2022-09-09T16:22:47.609Z,3.35
2022-09-09T16:25:17.959Z,2.95
2022-09-09T16:27:48.493Z,2.62
2022-09-09T16:30:20.276Z,2.72
2022-09-09T16:32:51.595Z,2.70
2022-09-09T16:35:25.137Z,3.10
2022-09-09T16:37:55.352Z,2.90
2022-09-09T16:40:27.744Z,2.80
2022-09-09T16:43:02.229Z,3.05
2022-09-09T16:45:35.711Z,2.95
2022-09-09T16:48:09.086Z,2.65
2022-09-09T16:50:42.423Z,2.85
2022-09-09T16:53:14.021Z,3.00
2022-09-09T16:55:44.641Z,2.72
2022-09-09T16:58:14.892Z,3.02
2022-09-09T17:00:47.115Z,2.90
2022-09-09T17:03:18.537Z,3.50
2022-09-09T17:05:52.038Z,2.92
2022-09-09T17:08:22.220Z,3.10
2022-09-09T17:10:58.220Z,2.92
2022-09-09T17:13:27.409Z,3.35
2022-09-09T17:16:02.770Z,2.92
2022-09-09T17:18:31.252Z,3.10
2022-09-09T17:21:04.466Z,2.75
2022-09-09T17:23:38.670Z,2.33
2022-09-09T17:26:16.567Z,3.08
2022-09-09T17:28:54.150Z,2.60
2022-09-09T17:31:26.596Z,2.72
2022-09-09T17:36:50.417Z,2.60
2022-09-09T17:39:20.669Z,3.02
2022-09-09T17:41:51.259Z,3.05
2022-09-09T17:44:22.564Z,2.30
2022-09-09T17:46:54.162Z,3.37
2022-09-09T17:49:28.485Z,2.37
2022-09-09T17:52:01.749Z,2.27
2022-09-09T17:54:32.003Z,1.67
2022-09-09T17:57:04.800Z,2.90
2022-09-09T17:59:35.004Z,3.00
2022-09-09T18:02:07.002Z,3.10
2022-09-09T18:04:38.311Z,2.58
2022-09-09T18:07:11.198Z,2.75
2022-09-09T18:09:42.135Z,3.12
2022-09-09T18:12:12.244Z,2.95
2022-09-09T18:14:42.580Z,3.20
2022-09-09T18:17:15.111Z,2.60
2022-09-09T18:19:45.236Z,3.08
2022-09-09T18:22:17.394Z,3.02
2022-09-09T18:24:48.261Z,2.85
2022-09-09T18:27:18.605Z,3.00
2022-09-09T18:29:49.443Z,3.15
2022-09-09T18:32:21.285Z,3.17
2022-09-09T18:34:55.522Z,2.72
2022-09-09T18:37:24.106Z,2.92
2022-09-09T18:39:54.245Z,2.72
2022-09-09T18:42:25.146Z,2.90
2022-09-09T18:44:55.312Z,3.00
2022-09-09T18:47:26.161Z,3.22
2022-09-09T18:49:56.648Z,3.47
2022-09-09T18:52:26.895Z,3.60
2022-09-09T18:54:57.207Z,3.27
2022-09-09T18:57:27.580Z,3.67
2022-09-09T18:59:59.520Z,3.27
2022-09-09T19:02:32.989Z,3.25
2022-09-09T19:05:04.797Z,3.37
2022-09-09T19:07:35.398Z,3.27
2022-09-09T19:10:06.024Z,3.22
2022-09-09T19:12:37.559Z,3.30
2022-09-09T19:15:08.205Z,3.52
2022-09-09T19:17:41.251Z,3.40
2022-09-09T19:20:11.900Z,3.00
2022-09-09T19:22:42.236Z,3.37
2022-09-09T19:25:12.661Z,3.25
2022-09-09T19:27:44.198Z,3.55
2022-09-09T19:30:14.856Z,4.15
2022-09-09T19:32:53.838Z,4.37
2022-09-09T19:35:16.932Z,3.87
2022-09-09T19:37:49.826Z,4.33
2022-09-09T19:40:21.383Z,4.22
2022-09-09T19:42:52.931Z,3.45
2022-09-09T19:45:25.122Z,3.50
2022-09-09T19:47:54.700Z,3.42
2022-09-09T19:50:25.330Z,3.33
2022-09-09T19:52:57.901Z,2.62
2022-09-09T19:55:31.171Z,4.33
2022-09-09T19:58:01.567Z,4.25
2022-09-09T20:00:32.744Z,3.87
2022-09-09T20:03:18.812Z,4.20
2022-09-09T20:05:34.640Z,3.92
2022-09-09T20:08:05.078Z,3.33
2022-09-09T20:10:36.842Z,3.30
2022-09-09T20:13:07.180Z,3.55
2022-09-09T20:15:37.522Z,3.77
2022-09-09T20:18:07.770Z,3.70
2022-09-09T20:20:43.303Z,3.27
2022-09-09T20:23:18.543Z,3.25
2022-09-09T20:25:50.954Z,4.80
2022-09-09T20:28:22.185Z,3.83
2022-09-09T20:30:53.072Z,3.52
2022-09-09T20:33:23.224Z,3.50
2022-09-09T20:35:54.622Z,3.40
2022-09-09T20:38:25.055Z,3.40
2022-09-09T20:40:55.174Z,3.22
2022-09-09T20:43:27.315Z,3.40
2022-09-09T20:46:00.954Z,3.40
2022-09-09T20:48:33.187Z,3.47
2022-09-09T20:51:04.621Z,3.42
2022-09-09T20:53:38.048Z,2.85
2022-09-09T20:56:10.792Z,3.30
2022-09-09T20:58:43.933Z,3.20
2022-09-09T21:01:18.620Z,3.20
2022-09-09T21:03:49.412Z,2.72
2022-09-09T21:06:23.620Z,2.80
2022-09-09T21:08:54.427Z,2.62
2022-09-09T21:11:25.308Z,3.02
2022-09-09T21:13:58.234Z,3.00
2022-09-09T21:16:29.130Z,2.95
2022-09-09T21:19:00.973Z,3.65
2022-09-09T21:21:31.084Z,3.80
2022-09-09T21:24:01.827Z,4.85
2022-09-09T21:26:34.111Z,4.65
2022-09-09T21:29:03.494Z,5.25
2022-09-09T21:31:34.069Z,4.40
2022-09-09T21:34:04.696Z,5.08
2022-09-09T21:36:34.935Z,4.45
2022-09-09T21:39:05.006Z,4.22
2022-09-09T21:41:35.258Z,4.92
2022-09-09T21:44:05.441Z,5.20
2022-09-09T21:46:35.689Z,5.37
2022-09-09T21:49:06.805Z,5.90
2022-09-09T21:51:36.925Z,5.37
2022-09-09T21:54:08.092Z,5.75
2022-09-09T21:56:38.205Z,6.10
2022-09-09T21:59:13.124Z,5.90
2022-09-09T22:01:43.555Z,6.17
2022-09-09T22:04:16.768Z,6.30
2022-09-09T22:06:46.886Z,7.10
2022-09-09T22:09:19.972Z,6.22
2022-09-09T22:11:50.187Z,6.33
2022-09-09T22:14:21.260Z,5.70
2022-09-09T22:16:53.338Z,6.20
2022-09-09T22:19:25.091Z,5.67
2022-09-09T22:21:57.747Z,5.65
2022-09-09T22:24:31.855Z,5.00
2022-09-09T22:27:02.379Z,4.83
2022-09-09T22:29:33.151Z,4.37
2022-09-09T22:32:04.661Z,3.60
2022-09-09T22:34:36.440Z,3.58
2022-09-09T22:37:07.109Z,3.52
2022-09-09T22:39:37.927Z,4.17
2022-09-09T22:42:11.697Z,3.98
2022-09-09T22:44:45.813Z,3.80
2022-09-09T22:47:16.026Z,4.15
2022-09-09T22:49:46.145Z,4.20
2022-09-09T22:52:18.589Z,4.03
2022-09-09T22:54:49.349Z,4.67
2022-09-09T22:57:21.618Z,5.40
2022-09-09T22:59:51.227Z,5.20
2022-09-09T23:02:22.784Z,5.22
2022-09-09T23:04:53.726Z,5.95
2022-09-09T23:07:24.554Z,7.45
2022-09-09T23:09:54.823Z,6.05
2022-09-09T23:12:26.432Z,4.12
2022-09-09T23:14:58.072Z,4.22
2022-09-09T23:17:28.528Z,4.30
2022-09-09T23:19:59.320Z,8.78
2022-09-09T23:22:33.003Z,8.18
2022-09-09T23:25:03.995Z,9.73
2022-09-09T23:27:36.580Z,7.58
2022-09-09T23:30:08.239Z,5.87
2022-09-09T23:32:38.659Z,6.90
2022-09-09T23:35:08.816Z,9.05
2022-09-09T23:37:40.392Z,6.75
2022-09-09T23:40:10.896Z,6.25
2022-09-09T23:42:44.260Z,5.37
2022-09-09T23:45:14.579Z,4.80
2022-09-09T23:47:45.007Z,4.22
2022-09-09T23:50:15.259Z,4.90
2022-09-09T23:52:45.795Z,4.55
2022-09-09T23:55:15.905Z,4.58
2022-09-09T23:57:46.303Z,4.53
